createdAt,value
2019-04-30T00:00:08.100Z,90.84
2019-04-30T00:11:15.897Z,92.16
2019-04-30T00:22:13.447Z,91.25
2019-04-30T00:33:21.983Z,91.25
2019-04-30T00:44:24.901Z,91.49
2019-04-30T00:55:21.421Z,92.41
2019-04-30T01:06:28.639Z,90.84
2019-04-30T01:17:27.572Z,90.19
2019-04-30T01:28:32.121Z,89.48
2019-04-30T01:39:31.703Z,89.07
2019-04-30T01:50:33.746Z,88.67
2019-04-30T02:01:41.075Z,90.49
2019-04-30T02:12:42.266Z,89.78
2019-04-30T02:23:42.796Z,90.03
2019-04-30T02:34:44.340Z,90.13
2019-04-30T02:45:41.982Z,92.71
2019-04-30T02:56:44.717Z,91.33
2019-04-30T03:07:52.973Z,93.31
2019-04-30T03:18:53.959Z,92.25
2019-04-30T03:29:59.988Z,92.35
2019-04-30T03:41:00.426Z,94.53
2019-04-30T03:52:00.168Z,92.55
2019-04-30T04:03:00.319Z,92.96
2019-04-30T04:13:59.663Z,93.67
2019-04-30T04:25:01.372Z,92.71
2019-04-30T04:36:05.843Z,92.97
2019-04-30T04:47:09.928Z,92.93
2019-04-30T04:58:16.075Z,93.48
2019-04-30T05:09:19.497Z,93.95
2019-04-30T05:20:11.141Z,94.50
2019-04-30T05:31:09.996Z,94.96
2019-04-30T05:42:08.837Z,95.32
2019-04-30T05:53:09.711Z,95.87
2019-04-30T06:04:09.534Z,96.34
2019-04-30T06:15:11.715Z,96.23
2019-04-30T06:26:10.764Z,96.75
2019-04-30T06:37:10.632Z,96.60
2019-04-30T06:48:09.109Z,97.20
2019-04-30T06:59:11.371Z,98.68
2019-04-30T07:10:16.946Z,99.28
2019-04-30T07:21:19.741Z,99.99
2019-04-30T07:32:19.702Z,99.99
2019-04-30T07:43:19.902Z,99.99
2019-04-30T07:54:19.804Z,99.99
2019-04-30T08:05:19.758Z,99.99
2019-04-30T08:16:20.319Z,99.99
2019-04-30T08:27:19.621Z,99.99
2019-04-30T08:38:16.567Z,99.99
2019-04-30T08:49:19.366Z,99.99
2019-04-30T09:00:21.798Z,99.99
2019-04-30T09:11:29.391Z,99.99
2019-04-30T09:22:25.396Z,99.99
2019-04-30T09:33:29.417Z,99.99
2019-04-30T09:44:30.889Z,99.99
2019-04-30T09:55:28.945Z,99.99
2019-04-30T10:06:38.912Z,99.99
2019-04-30T10:17:31.340Z,99.99
2019-04-30T10:28:32.196Z,99.99
2019-04-30T10:39:34.261Z,99.99
2019-04-30T10:50:30.699Z,99.99
2019-04-30T11:01:34.077Z,99.99
2019-04-30T11:12:33.645Z,99.99
2019-04-30T11:23:32.207Z,99.99
2019-04-30T11:34:35.204Z,99.99
2019-04-30T11:45:35.169Z,99.99
2019-04-30T11:56:34.166Z,99.99
2019-04-30T12:07:34.377Z,99.99
2019-04-30T12:18:28.577Z,99.99
2019-04-30T12:29:23.281Z,99.99
2019-04-30T12:40:28.958Z,99.99
2019-04-30T12:51:29.053Z,99.99
2019-04-30T13:02:32.453Z,99.99
2019-04-30T13:13:32.130Z,99.99
2019-04-30T13:24:32.571Z,99.99
2019-04-30T13:35:32.014Z,99.99
2019-04-30T13:46:33.874Z,99.99
2019-04-30T13:57:35.070Z,99.99
2019-04-30T14:08:39.064Z,99.99
2019-04-30T14:19:34.436Z,99.99
2019-04-30T14:30:35.384Z,99.99
2019-04-30T14:41:40.402Z,99.99
2019-04-30T14:52:37.584Z,99.99
2019-04-30T15:03:36.862Z,99.99
2019-04-30T15:14:32.979Z,99.99
2019-04-30T15:25:36.022Z,99.99
2019-04-30T15:36:26.226Z,99.99
2019-04-30T15:47:28.782Z,99.99
2019-04-30T15:58:30.856Z,99.99
2019-04-30T16:09:33.628Z,99.99
2019-04-30T16:20:32.489Z,99.99
2019-04-30T16:31:32.086Z,99.99
2019-04-30T16:42:32.382Z,99.99
2019-04-30T16:53:33.580Z,99.99
2019-04-30T17:04:32.063Z,99.99
2019-04-30T17:15:32.791Z,99.99
2019-04-30T17:26:34.075Z,99.99
2019-04-30T17:37:36.509Z,99.99
2019-04-30T17:48:39.389Z,99.99
2019-04-30T17:59:38.810Z,99.99
2019-04-30T18:10:35.027Z,99.99
2019-04-30T18:21:31.779Z,99.99
2019-04-30T18:32:29.960Z,99.99
2019-04-30T18:43:28.720Z,99.99
2019-04-30T18:54:20.961Z,99.99
2019-04-30T19:05:20.011Z,99.99
2019-04-30T19:16:21.825Z,99.99
2019-04-30T19:27:14.817Z,99.99
2019-04-30T19:38:13.798Z,99.99
2019-04-30T19:49:10.052Z,99.99
2019-04-30T20:00:00.793Z,99.99
2019-04-30T20:10:56.315Z,99.99
2019-04-30T20:21:52.977Z,99.99
2019-04-30T20:32:52.908Z,99.99
2019-04-30T20:43:49.401Z,99.99
2019-04-30T20:54:49.008Z,99.99
2019-04-30T21:05:43.280Z,99.99
2019-04-30T21:16:41.984Z,99.99
2019-04-30T21:27:42.027Z,99.99
2019-04-30T21:38:41.199Z,99.99
2019-04-30T21:49:38.721Z,99.99
2019-04-30T22:00:34.607Z,99.99
2019-04-30T22:11:39.469Z,99.99
2019-04-30T22:22:40.452Z,99.99
2019-04-30T22:33:41.771Z,99.99
2019-04-30T22:44:39.425Z,99.99
2019-04-30T22:55:40.141Z,99.99
2019-04-30T23:06:41.321Z,99.99
2019-04-30T23:17:40.267Z,99.99
2019-04-30T23:28:39.413Z,99.99
2019-04-30T23:39:41.722Z,99.99
2019-04-30T23:50:37.489Z,99.99
